createdAt,value
2018-09-14T00:00:21.895Z,18.80
2018-09-14T00:02:50.103Z,15.47
2018-09-14T00:05:19.022Z,17.77
2018-09-14T00:07:47.246Z,16.57
2018-09-14T00:10:15.539Z,20.60
2018-09-14T00:12:43.797Z,19.83
2018-09-14T00:15:12.022Z,19.60
2018-09-14T00:17:40.249Z,21.53
2018-09-14T00:20:09.126Z,21.77
2018-09-14T00:22:37.362Z,21.33
2018-09-14T00:25:05.578Z,19.37
2018-09-14T00:27:33.811Z,19.80
2018-09-14T00:30:02.066Z,19.83
2018-09-14T00:32:30.840Z,28.17
2018-09-14T00:34:59.198Z,19.77
2018-09-14T00:37:27.692Z,22.13
2018-09-14T00:39:55.909Z,22.37
2018-09-14T00:42:24.158Z,23.60
2018-09-14T00:44:52.439Z,23.47
2018-09-14T00:47:21.534Z,26.57
2018-09-14T00:49:49.745Z,25.10
2018-09-14T00:52:18.011Z,23.03
2018-09-14T00:54:46.371Z,26.43
2018-09-14T00:57:14.738Z,30.27
2018-09-14T00:59:43.023Z,30.97
2018-09-14T01:02:11.259Z,31.00
2018-09-14T01:04:39.494Z,30.80
2018-09-14T01:07:07.823Z,28.97
2018-09-14T01:09:36.083Z,28.73
2018-09-14T01:12:04.306Z,30.67
2018-09-14T01:14:32.845Z,33.47
2018-09-14T01:17:01.271Z,35.47
2018-09-14T01:19:29.555Z,35.27
2018-09-14T01:21:57.811Z,32.60
2018-09-14T01:24:26.167Z,34.77
2018-09-14T01:26:54.403Z,38.20
2018-09-14T01:29:22.762Z,37.37
2018-09-14T01:31:50.983Z,37.23
2018-09-14T01:34:19.419Z,39.33
2018-09-14T01:36:47.694Z,36.87
2018-09-14T01:39:16.822Z,44.33
2018-09-14T01:41:45.331Z,38.33
2018-09-14T01:44:13.566Z,37.67
2018-09-14T01:46:41.782Z,41.43
2018-09-14T01:49:10.014Z,41.03
2018-09-14T01:51:38.344Z,40.97
2018-09-14T01:54:06.601Z,43.50
2018-09-14T01:56:34.818Z,46.37
2018-09-14T01:59:03.432Z,40.87
2018-09-14T02:01:31.739Z,41.17
2018-09-14T02:04:00.098Z,45.33
2018-09-14T02:06:29.514Z,39.53
2018-09-14T02:08:57.738Z,42.67
2018-09-14T02:11:26.040Z,45.03
2018-09-14T02:13:54.263Z,43.60
2018-09-14T02:16:22.591Z,40.87
2018-09-14T02:18:50.836Z,45.67
2018-09-14T02:21:19.044Z,44.77
2018-09-14T02:23:47.256Z,40.07
2018-09-14T02:26:15.675Z,41.37
2018-09-14T02:28:43.965Z,44.83
2018-09-14T02:31:12.196Z,44.50
2018-09-14T02:33:40.422Z,45.10
2018-09-14T02:36:08.907Z,42.13
2018-09-14T02:38:37.317Z,38.77
2018-09-14T02:41:05.623Z,45.07
2018-09-14T02:43:33.860Z,43.00
2018-09-14T02:46:02.075Z,42.57
2018-09-14T02:48:30.375Z,45.07
2018-09-14T02:50:58.634Z,44.43
2018-09-14T02:53:26.931Z,44.93
2018-09-14T02:55:55.168Z,45.07
2018-09-14T02:58:23.473Z,49.40
2018-09-14T03:00:52.068Z,42.97
2018-09-14T03:03:20.287Z,39.63
2018-09-14T03:05:48.513Z,41.33
2018-09-14T03:08:16.794Z,43.87
2018-09-14T03:10:45.692Z,42.00
2018-09-14T03:13:14.173Z,46.20
2018-09-14T03:15:42.395Z,43.43
2018-09-14T03:18:10.692Z,46.83
2018-09-14T03:20:38.926Z,44.10
2018-09-14T03:23:07.281Z,47.80
2018-09-14T03:25:35.507Z,44.77
2018-09-14T03:28:03.758Z,48.77
2018-09-14T03:30:31.986Z,44.60
2018-09-14T03:33:00.202Z,46.73
2018-09-14T03:35:28.842Z,52.40
2018-09-14T03:37:57.060Z,57.20
2018-09-14T03:40:25.285Z,48.20
2018-09-14T03:42:53.585Z,43.77
2018-09-14T03:45:21.895Z,43.90
2018-09-14T03:47:50.125Z,51.07
2018-09-14T03:50:18.332Z,57.13
2018-09-14T03:52:46.566Z,48.10
2018-09-14T03:55:15.092Z,53.63
2018-09-14T03:57:43.363Z,46.97
2018-09-14T04:00:11.589Z,48.87
2018-09-14T04:02:39.912Z,48.40
2018-09-14T04:05:08.334Z,48.33
2018-09-14T04:07:36.689Z,47.10
2018-09-14T04:10:05.013Z,49.33
2018-09-14T04:12:33.234Z,46.80
2018-09-14T04:15:01.666Z,48.10
2018-09-14T04:17:29.965Z,43.50
2018-09-14T04:19:58.220Z,46.00
2018-09-14T04:22:26.456Z,50.13
2018-09-14T04:24:54.666Z,44.60
2018-09-14T04:27:22.944Z,47.40
2018-09-14T04:29:51.479Z,42.17
2018-09-14T04:32:19.682Z,47.47
2018-09-14T04:34:47.880Z,47.87
2018-09-14T04:37:16.234Z,48.93
2018-09-14T04:39:44.538Z,45.57
2018-09-14T04:42:12.733Z,47.13
2018-09-14T04:44:40.958Z,51.93
2018-09-14T04:47:09.934Z,42.73
2018-09-14T04:49:50.519Z,46.00
2018-09-14T04:52:19.001Z,53.53
2018-09-14T04:54:47.177Z,50.30
2018-09-14T04:57:15.535Z,49.47
2018-09-14T04:59:43.769Z,49.97
2018-09-14T05:02:11.950Z,50.83
2018-09-14T05:04:40.121Z,52.00
2018-09-14T05:07:08.498Z,46.83
2018-09-14T05:09:36.754Z,51.73
2018-09-14T05:12:04.978Z,47.57
2018-09-14T05:14:33.186Z,50.80
2018-09-14T05:17:01.462Z,51.10
2018-09-14T05:19:29.666Z,57.20
2018-09-14T05:21:57.862Z,55.57
2018-09-14T05:24:26.041Z,55.77
2018-09-14T05:26:54.482Z,50.93
2018-09-14T05:29:22.790Z,56.47
2018-09-14T05:31:51.313Z,50.73
2018-09-14T05:34:19.503Z,54.63
2018-09-14T05:36:47.672Z,52.87
2018-09-14T05:39:16.101Z,53.93
2018-09-14T05:41:45.465Z,56.33
2018-09-14T05:44:14.144Z,51.50
2018-09-14T05:46:42.318Z,54.90
2018-09-14T05:49:10.533Z,55.87
2018-09-14T05:51:39.725Z,55.53
2018-09-14T05:54:08.045Z,59.77
2018-09-14T05:56:36.225Z,53.63
2018-09-14T05:59:04.620Z,52.03
2018-09-14T06:01:33.140Z,51.93
2018-09-14T06:04:01.973Z,49.20
2018-09-14T06:06:30.509Z,51.00
2018-09-14T06:08:58.815Z,54.47
2018-09-14T06:11:26.989Z,50.37
2018-09-14T06:13:55.238Z,48.63
2018-09-14T06:16:23.696Z,50.53
2018-09-14T06:18:52.217Z,52.30
2018-09-14T06:21:20.427Z,54.00
2018-09-14T06:23:48.587Z,43.77
2018-09-14T06:26:16.784Z,48.00
2018-09-14T06:28:45.104Z,51.83
2018-09-14T06:31:13.288Z,48.87
2018-09-14T06:33:41.486Z,46.67
2018-09-14T06:36:09.690Z,45.50
2018-09-14T06:38:38.465Z,46.00
2018-09-14T06:41:07.193Z,47.70
2018-09-14T06:43:35.381Z,43.40
2018-09-14T06:46:03.569Z,40.93
2018-09-14T06:48:31.802Z,39.63
2018-09-14T06:51:00.101Z,43.47
2018-09-14T06:53:28.325Z,43.17
2018-09-14T06:55:56.494Z,43.87
2018-09-14T06:58:24.966Z,40.90
2018-09-14T07:00:53.153Z,40.40
2018-09-14T07:03:21.355Z,37.53
2018-09-14T07:05:49.592Z,41.53
2018-09-14T07:08:17.758Z,38.63
2018-09-14T07:10:46.444Z,35.20
2018-09-14T07:13:14.746Z,34.53
2018-09-14T07:15:42.904Z,36.77
2018-09-14T07:18:11.109Z,38.77
2018-09-14T07:20:39.352Z,38.00
2018-09-14T07:23:07.689Z,35.83
2018-09-14T07:25:35.885Z,35.60
2018-09-14T07:28:04.103Z,34.47
2018-09-14T07:30:32.282Z,28.50
2018-09-14T07:33:00.580Z,35.33
2018-09-14T07:35:28.762Z,32.93
2018-09-14T07:37:56.940Z,32.90
2018-09-14T07:40:25.154Z,35.03
2018-09-14T07:42:53.449Z,32.77
2018-09-14T07:45:21.694Z,33.37
2018-09-14T07:47:49.906Z,32.33
2018-09-14T07:50:18.084Z,32.30
2018-09-14T07:52:46.338Z,32.17
2018-09-14T07:55:14.949Z,33.67
2018-09-14T07:57:43.090Z,29.17
2018-09-14T08:00:11.289Z,30.40
2018-09-14T08:02:39.515Z,27.40
2018-09-14T08:05:07.913Z,33.77
2018-09-14T08:07:36.457Z,28.50
2018-09-14T08:10:04.665Z,29.30
2018-09-14T08:12:32.916Z,23.10
2018-09-14T08:15:01.794Z,27.43
2018-09-14T08:17:30.008Z,23.33
2018-09-14T08:19:58.261Z,29.90
2018-09-14T08:22:26.378Z,30.50
2018-09-14T08:24:54.563Z,23.20
2018-09-14T08:27:23.681Z,22.13
2018-09-14T08:29:52.350Z,31.33
2018-09-14T08:32:20.608Z,31.17
2018-09-14T08:34:48.739Z,28.93
2018-09-14T08:37:16.941Z,27.60
2018-09-14T08:39:45.133Z,22.63
2018-09-14T08:42:13.321Z,24.70
2018-09-14T08:44:41.505Z,23.50
2018-09-14T08:47:09.670Z,27.13
2018-09-14T08:49:37.930Z,28.67
2018-09-14T08:52:06.213Z,28.13
2018-09-14T08:54:34.520Z,24.60
2018-09-14T08:57:02.702Z,28.17
2018-09-14T08:59:31.029Z,27.60
2018-09-14T09:01:59.258Z,27.30
2018-09-14T09:04:27.453Z,20.67
2018-09-14T09:06:55.750Z,21.27
2018-09-14T09:09:24.179Z,21.90
2018-09-14T09:11:52.436Z,18.37
2018-09-14T09:14:20.662Z,19.80
2018-09-14T09:16:48.925Z,18.23
2018-09-14T09:19:17.188Z,18.95
2018-09-14T09:21:45.802Z,20.57
2018-09-14T09:24:14.025Z,20.37
2018-09-14T09:26:42.239Z,21.62
2018-09-14T09:29:10.468Z,21.42
2018-09-14T09:31:39.329Z,22.40
2018-09-14T09:34:07.701Z,23.87
2018-09-14T09:36:35.933Z,21.77
2018-09-14T09:39:07.913Z,20.60
2018-09-14T09:41:36.117Z,17.67
2018-09-14T09:44:04.369Z,24.93
2018-09-14T09:46:32.581Z,16.80
2018-09-14T09:49:00.789Z,18.33
2018-09-14T09:51:28.992Z,17.57
2018-09-14T09:53:57.250Z,15.00
2018-09-14T09:56:25.477Z,21.37
2018-09-14T09:58:53.886Z,15.60
2018-09-14T10:01:27.883Z,17.03
2018-09-14T10:04:01.634Z,19.50
2018-09-14T10:06:29.832Z,18.50
2018-09-14T10:08:58.057Z,18.65
2018-09-14T10:11:26.975Z,16.27
2018-09-14T10:13:55.296Z,16.23
2018-09-14T10:16:23.705Z,14.83
2018-09-14T10:18:52.046Z,14.58
2018-09-14T10:21:20.367Z,13.93
2018-09-14T10:23:48.560Z,11.63
2018-09-14T10:26:16.774Z,9.78
2018-09-14T10:28:45.197Z,10.18
2018-09-14T10:31:13.394Z,12.25
2018-09-14T10:33:41.624Z,16.20
2018-09-14T10:36:09.828Z,14.68
2018-09-14T10:38:38.222Z,14.00
2018-09-14T10:41:06.529Z,13.30
2018-09-14T10:43:34.730Z,12.47
2018-09-14T10:46:02.990Z,11.70
2018-09-14T10:48:31.349Z,15.78
2018-09-14T10:50:59.713Z,14.45
2018-09-14T10:53:27.954Z,12.35
2018-09-14T10:55:56.187Z,12.95
2018-09-14T10:58:24.457Z,15.32
2018-09-14T11:00:52.821Z,13.93
2018-09-14T11:03:21.009Z,12.45
2018-09-14T11:05:49.231Z,13.65
2018-09-14T11:08:17.460Z,13.58
2018-09-14T11:10:45.766Z,14.07
2018-09-14T11:13:14.182Z,12.53
2018-09-14T11:15:42.389Z,14.63
2018-09-14T11:18:10.647Z,12.67
2018-09-14T11:20:39.494Z,12.90
2018-09-14T11:23:07.690Z,16.73
2018-09-14T11:25:35.904Z,14.87
2018-09-14T11:28:04.091Z,13.70
2018-09-14T11:30:32.274Z,12.73
2018-09-14T11:33:00.659Z,14.93
2018-09-14T11:35:28.853Z,11.40
2018-09-14T11:37:57.149Z,11.17
2018-09-14T11:40:25.225Z,13.53
2018-09-14T11:42:54.122Z,12.77
2018-09-14T11:45:22.381Z,15.50
2018-09-14T11:47:50.495Z,11.20
2018-09-14T11:50:18.699Z,12.43
2018-09-14T11:52:46.872Z,11.53
2018-09-14T11:55:16.175Z,10.27
2018-09-14T11:57:44.565Z,10.93
2018-09-14T12:00:12.766Z,10.33
2018-09-14T12:02:40.962Z,9.33
2018-09-14T12:05:09.892Z,10.00
2018-09-14T12:07:39.154Z,9.33
2018-09-14T12:10:08.397Z,11.35
2018-09-14T12:12:36.649Z,12.37
2018-09-14T12:15:04.945Z,10.30
2018-09-14T12:17:33.169Z,10.13
2018-09-14T12:20:01.463Z,11.03
2018-09-14T12:22:29.782Z,8.10
2018-09-14T12:24:58.006Z,7.45
2018-09-14T12:27:26.295Z,8.28
2018-09-14T12:29:55.464Z,9.93
2018-09-14T12:32:23.865Z,9.48
2018-09-14T12:34:52.200Z,9.05
2018-09-14T12:37:20.713Z,11.90
2018-09-14T12:39:48.934Z,10.45
2018-09-14T12:42:17.250Z,9.88
2018-09-14T12:44:45.526Z,11.05
2018-09-14T12:47:13.730Z,9.65
2018-09-14T12:49:41.958Z,10.98
2018-09-14T12:52:10.149Z,10.93
2018-09-14T12:54:38.407Z,10.48
2018-09-14T12:57:06.689Z,9.50
2018-09-14T12:59:35.030Z,10.20
2018-09-14T13:02:03.246Z,11.57
2018-09-14T13:04:31.506Z,10.40
2018-09-14T13:06:59.845Z,9.50
2018-09-14T13:09:28.034Z,9.55
2018-09-14T13:11:56.249Z,10.18
2018-09-14T13:14:24.543Z,10.90
2018-09-14T13:16:52.764Z,11.80
2018-09-14T13:19:21.417Z,14.40
2018-09-14T13:21:49.665Z,10.53
2018-09-14T13:24:24.494Z,11.57
2018-09-14T13:26:52.704Z,10.18
2018-09-14T13:29:21.217Z,10.63
2018-09-14T13:31:49.490Z,10.65
2018-09-14T13:34:17.722Z,10.03
2018-09-14T13:36:46.289Z,12.73
2018-09-14T13:39:14.577Z,11.55
2018-09-14T13:41:42.796Z,11.73
2018-09-14T13:44:11.117Z,10.43
2018-09-14T13:46:39.420Z,11.68
2018-09-14T13:49:07.858Z,10.78
2018-09-14T13:51:36.080Z,9.88
2018-09-14T13:54:05.551Z,10.28
2018-09-14T13:56:34.030Z,13.98
2018-09-14T13:59:03.277Z,11.10
2018-09-14T14:01:31.655Z,10.67
2018-09-14T14:04:00.700Z,9.37
2018-09-14T14:06:30.167Z,8.68
2018-09-14T14:08:58.406Z,10.67
2018-09-14T14:11:26.646Z,12.70
2018-09-14T14:13:54.853Z,9.80
2018-09-14T14:16:23.333Z,10.80
2018-09-14T14:18:51.583Z,11.45
2018-09-14T14:21:19.859Z,10.50
2018-09-14T14:23:48.064Z,9.00
2018-09-14T14:26:16.725Z,12.80
2018-09-14T14:28:46.155Z,11.08
2018-09-14T14:31:15.595Z,9.70
2018-09-14T14:33:43.825Z,9.83
2018-09-14T14:36:12.029Z,10.97
2018-09-14T14:38:40.244Z,9.77
2018-09-14T14:41:08.613Z,11.80
2018-09-14T14:43:36.750Z,11.63
2018-09-14T14:46:05.121Z,10.67
2018-09-14T14:48:33.513Z,9.30
2018-09-14T14:51:02.821Z,10.88
2018-09-14T14:53:31.103Z,7.45
2018-09-14T14:56:00.324Z,9.00
2018-09-14T14:58:28.428Z,10.78
2018-09-14T15:00:56.711Z,8.77
2018-09-14T15:03:24.959Z,8.13
2018-09-14T15:05:53.341Z,8.50
2018-09-14T15:08:21.737Z,9.13
2018-09-14T15:10:50.152Z,8.17
2018-09-14T15:13:18.350Z,7.28
2018-09-14T15:15:46.751Z,7.53
2018-09-14T15:18:15.739Z,7.28
2018-09-14T15:20:43.949Z,9.88
2018-09-14T15:23:12.155Z,6.90
2018-09-14T15:25:40.417Z,8.40
2018-09-14T15:28:08.688Z,8.67
2018-09-14T15:30:36.897Z,7.92
2018-09-14T15:33:05.124Z,8.30
2018-09-14T15:35:33.289Z,6.43
2018-09-14T15:38:01.586Z,8.97
2018-09-14T15:40:29.950Z,9.00
2018-09-14T15:42:58.142Z,8.77
2018-09-14T15:45:26.512Z,8.27
2018-09-14T15:47:55.032Z,8.00
2018-09-14T15:50:23.234Z,9.83
2018-09-14T15:52:51.427Z,7.50
2018-09-14T15:55:19.621Z,7.87
2018-09-14T15:57:47.843Z,8.70
2018-09-14T16:00:16.000Z,8.97
2018-09-14T16:02:44.230Z,8.70
2018-09-14T16:05:12.521Z,6.97
2018-09-14T16:07:40.702Z,9.00
2018-09-14T16:10:08.997Z,12.77
2018-09-14T16:12:37.263Z,8.83
2018-09-14T16:15:05.432Z,9.63
2018-09-14T16:17:33.619Z,7.13
2018-09-14T16:20:02.402Z,7.80
2018-09-14T16:22:31.501Z,6.10
2018-09-14T16:24:59.690Z,6.83
2018-09-14T16:27:27.906Z,7.73
2018-09-14T16:29:56.131Z,9.43
2018-09-14T16:32:24.361Z,7.40
2018-09-14T16:34:52.890Z,5.90
2018-09-14T16:37:21.148Z,9.80
2018-09-14T16:39:49.237Z,7.13
2018-09-14T16:42:17.525Z,7.17
2018-09-14T16:44:45.748Z,8.70
2018-09-14T16:47:13.940Z,8.63
2018-09-14T16:49:42.180Z,7.77
2018-09-14T16:52:10.398Z,7.40
2018-09-14T16:54:38.657Z,7.30
2018-09-14T16:57:06.885Z,7.30
2018-09-14T16:59:35.124Z,11.27
2018-09-14T17:02:03.421Z,7.30
2018-09-14T17:04:31.726Z,7.77
2018-09-14T17:07:00.023Z,6.70
2018-09-14T17:09:28.211Z,8.93
2018-09-14T17:11:57.671Z,8.27
2018-09-14T17:14:25.848Z,7.07
2018-09-14T17:16:54.302Z,9.00
2018-09-14T17:19:22.518Z,7.80
2018-09-14T17:21:51.089Z,9.47
2018-09-14T17:24:19.356Z,6.87
2018-09-14T17:26:47.520Z,8.83
2018-09-14T17:29:15.697Z,8.70
2018-09-14T17:31:46.842Z,7.67
2018-09-14T17:34:15.177Z,8.73
2018-09-14T17:36:43.364Z,9.73
2018-09-14T17:39:11.582Z,8.43
2018-09-14T17:41:39.817Z,10.10
2018-09-14T17:44:08.248Z,8.43
2018-09-14T17:46:36.477Z,8.07
2018-09-14T17:49:04.689Z,10.20
2018-09-14T17:51:32.898Z,9.60
2018-09-14T17:54:01.333Z,6.77
2018-09-14T17:56:29.529Z,11.07
2018-09-14T17:58:58.202Z,9.97
2018-09-14T18:01:28.145Z,9.87
2018-09-14T18:03:56.336Z,9.33
2018-09-14T18:06:24.541Z,8.37
2018-09-14T18:08:52.785Z,7.87
2018-09-14T18:11:21.023Z,12.33
2018-09-14T18:13:49.205Z,10.93
2018-09-14T18:16:17.697Z,8.73
2018-09-14T18:18:46.040Z,8.13
2018-09-14T18:21:14.294Z,9.20
2018-09-14T18:23:42.606Z,7.87
2018-09-14T18:26:10.822Z,8.90
2018-09-14T18:28:39.133Z,8.80
2018-09-14T18:31:07.492Z,9.27
2018-09-14T18:33:35.717Z,9.13
2018-09-14T18:36:04.045Z,10.57
2018-09-14T18:38:32.270Z,13.60
2018-09-14T18:41:00.496Z,10.47
2018-09-14T18:43:28.746Z,11.20
2018-09-14T18:45:56.978Z,12.80
2018-09-14T18:48:25.361Z,11.50
2018-09-14T18:50:53.557Z,10.87
2018-09-14T18:53:21.782Z,12.60
2018-09-14T18:55:50.101Z,11.90
2018-09-14T18:58:18.421Z,14.10
2018-09-14T19:00:46.726Z,12.60
2018-09-14T19:03:14.951Z,8.33
2018-09-14T19:05:43.871Z,8.67
2018-09-14T19:08:12.223Z,7.97
2018-09-14T19:10:42.291Z,8.80
2018-09-14T19:13:10.598Z,8.20
2018-09-14T19:15:38.912Z,8.90
2018-09-14T19:18:07.478Z,12.43
2018-09-14T19:20:35.873Z,12.97
2018-09-14T19:23:04.221Z,14.50
2018-09-14T19:25:32.425Z,12.77
2018-09-14T19:28:00.926Z,17.27
2018-09-14T19:30:29.123Z,12.87
2018-09-14T19:32:59.497Z,12.97
2018-09-14T19:35:27.844Z,13.27
2018-09-14T19:37:56.078Z,12.47
2018-09-14T19:40:32.100Z,13.23
2018-09-14T19:43:00.512Z,16.87
2018-09-14T19:45:28.742Z,13.73
2018-09-14T19:47:57.502Z,14.17
2018-09-14T19:50:25.809Z,13.23
2018-09-14T19:52:54.015Z,12.63
2018-09-14T19:55:22.219Z,11.13
2018-09-14T19:57:50.507Z,12.43
2018-09-14T20:00:18.801Z,13.47
2018-09-14T20:02:47.096Z,15.83
2018-09-14T20:05:15.312Z,13.53
2018-09-14T20:07:43.546Z,16.53
2018-09-14T20:10:11.766Z,10.77
2018-09-14T20:12:39.986Z,12.03
2018-09-14T20:15:08.309Z,14.57
2018-09-14T20:17:36.686Z,16.63
2018-09-14T20:20:05.081Z,14.90
2018-09-14T20:22:33.471Z,18.83
2018-09-14T20:25:01.990Z,15.67
2018-09-14T20:27:30.238Z,15.97
2018-09-14T20:29:58.504Z,14.30
2018-09-14T20:32:26.787Z,15.03
2018-09-14T20:34:55.037Z,14.50
2018-09-14T20:37:23.327Z,14.67
2018-09-14T20:39:51.498Z,15.40
2018-09-14T20:42:19.840Z,15.90
2018-09-14T20:44:48.129Z,17.77
2018-09-14T20:47:16.449Z,17.07
2018-09-14T20:49:44.779Z,16.27
2018-09-14T20:52:13.065Z,15.47
2018-09-14T20:54:41.334Z,15.13
2018-09-14T20:57:09.628Z,19.70
2018-09-14T20:59:37.825Z,13.30
2018-09-14T21:02:06.250Z,14.27
2018-09-14T21:04:34.886Z,15.93
2018-09-14T21:07:03.094Z,14.07
2018-09-14T21:09:31.393Z,14.67
2018-09-14T21:11:59.629Z,14.07
2018-09-14T21:14:27.849Z,14.97
2018-09-14T21:16:56.054Z,15.67
2018-09-14T21:19:24.314Z,15.07
2018-09-14T21:21:52.534Z,17.13
2018-09-14T21:24:20.849Z,18.83
2018-09-14T21:26:49.086Z,18.83
2018-09-14T21:29:17.348Z,17.70
2018-09-14T21:31:45.622Z,16.03
2018-09-14T21:34:13.816Z,18.53
2018-09-14T21:36:42.031Z,17.90
2018-09-14T21:39:11.226Z,18.87
2018-09-14T21:41:39.794Z,18.13
2018-09-14T21:44:08.525Z,16.80
2018-09-14T21:46:37.028Z,16.63
2018-09-14T21:49:05.316Z,18.20
2018-09-14T21:51:33.792Z,18.23
2018-09-14T21:54:02.109Z,19.53
2018-09-14T21:56:30.291Z,20.90
2018-09-14T21:58:58.518Z,16.83
2018-09-14T22:01:27.534Z,20.40
2018-09-14T22:03:56.559Z,20.03
2018-09-14T22:06:24.981Z,21.37
2018-09-14T22:08:53.339Z,17.87
2018-09-14T22:11:21.565Z,17.17
2018-09-14T22:13:50.389Z,21.17
2018-09-14T22:16:18.749Z,20.80
2018-09-14T22:18:46.948Z,18.97
2018-09-14T22:21:15.133Z,20.73
2018-09-14T22:23:43.369Z,20.60
2018-09-14T22:26:11.600Z,21.53
2018-09-14T22:28:39.841Z,20.43
2018-09-14T22:31:08.206Z,18.40
2018-09-14T22:33:36.540Z,17.43
2018-09-14T22:36:04.744Z,21.23
2018-09-14T22:38:32.958Z,24.00
2018-09-14T22:41:01.403Z,28.60
2018-09-14T22:43:29.601Z,19.70
2018-09-14T22:45:57.837Z,20.40
2018-09-14T22:48:26.030Z,20.30
2018-09-14T22:50:54.401Z,19.07
2018-09-14T22:53:22.877Z,19.10
2018-09-14T22:55:51.090Z,19.37
2018-09-14T22:58:19.313Z,19.63
2018-09-14T23:00:53.033Z,18.30
2018-09-14T23:03:21.236Z,19.37
2018-09-14T23:05:49.464Z,21.47
2018-09-14T23:08:17.715Z,22.50
2018-09-14T23:10:45.977Z,21.03
2018-09-14T23:13:14.273Z,22.03
2018-09-14T23:15:53.132Z,21.17
2018-09-14T23:18:21.334Z,21.67
2018-09-14T23:20:49.545Z,23.83
2018-09-14T23:23:17.891Z,21.83
2018-09-14T23:25:46.192Z,21.30
2018-09-14T23:28:14.491Z,21.27
2018-09-14T23:30:49.653Z,21.63
2018-09-14T23:33:18.084Z,21.93
2018-09-14T23:35:46.461Z,22.90
2018-09-14T23:38:14.712Z,20.17
2018-09-14T23:40:42.924Z,21.17
2018-09-14T23:43:11.126Z,25.37
2018-09-14T23:45:40.202Z,25.20
2018-09-14T23:48:08.535Z,26.83
2018-09-14T23:50:36.821Z,26.23
2018-09-14T23:53:05.061Z,30.17
2018-09-14T23:55:33.801Z,29.30
2018-09-14T23:58:02.090Z,28.90
